createdAt,value
2017-10-28T00:00:51.927Z,0.00
2017-10-28T00:02:45.351Z,0.00
2017-10-28T00:03:45.336Z,0.00
2017-10-28T00:05:38.692Z,0.00
2017-10-28T00:06:38.759Z,0.00
2017-10-28T00:08:32.175Z,0.00
2017-10-28T00:09:32.230Z,0.00
2017-10-28T00:11:25.494Z,0.00
2017-10-28T00:12:25.527Z,0.00
2017-10-28T00:14:19.948Z,0.00
2017-10-28T00:15:19.926Z,0.00
2017-10-28T00:17:13.312Z,0.00
2017-10-28T00:18:13.340Z,0.00
2017-10-28T00:20:06.714Z,0.00
2017-10-28T00:21:06.719Z,0.00
2017-10-28T00:23:00.059Z,0.00
2017-10-28T00:24:00.172Z,0.00
2017-10-28T00:25:53.515Z,0.00
2017-10-28T00:26:53.490Z,0.00
2017-10-28T00:28:46.945Z,0.00
2017-10-28T00:29:46.993Z,0.00
2017-10-28T00:31:40.325Z,0.00
2017-10-28T00:32:40.300Z,0.00
2017-10-28T00:34:33.674Z,0.00
2017-10-28T00:35:33.661Z,0.00
2017-10-28T00:37:27.146Z,0.00
2017-10-28T00:38:27.083Z,0.00
2017-10-28T00:40:21.451Z,0.00
2017-10-28T00:41:21.478Z,0.00
2017-10-28T00:43:15.902Z,0.00
2017-10-28T00:44:15.894Z,0.00
2017-10-28T00:46:09.227Z,0.00
2017-10-28T00:47:09.223Z,0.00
2017-10-28T00:49:03.732Z,0.00
2017-10-28T00:50:03.660Z,0.00
2017-10-28T00:51:56.971Z,0.00
2017-10-28T00:52:56.982Z,0.00
2017-10-28T00:54:50.494Z,0.00
2017-10-28T00:55:50.397Z,0.00
2017-10-28T00:57:44.787Z,0.00
2017-10-28T00:58:44.840Z,0.00
2017-10-28T01:00:38.176Z,0.00
2017-10-28T01:01:38.225Z,0.00
2017-10-28T01:03:31.624Z,0.00
2017-10-28T01:04:31.568Z,0.00
2017-10-28T01:06:25.951Z,0.00
2017-10-28T01:07:26.011Z,0.00
2017-10-28T01:09:19.363Z,0.00
2017-10-28T01:10:19.375Z,0.00
2017-10-28T01:12:12.768Z,0.00
2017-10-28T01:13:12.716Z,0.00
2017-10-28T01:15:06.146Z,0.00
2017-10-28T01:16:06.166Z,0.00
2017-10-28T01:17:59.533Z,0.00
2017-10-28T01:18:59.556Z,0.00
2017-10-28T01:20:52.964Z,0.00
2017-10-28T01:21:52.998Z,0.00
2017-10-28T01:23:46.380Z,0.00
2017-10-28T01:24:46.402Z,0.00
2017-10-28T01:26:39.697Z,0.00
2017-10-28T01:27:39.713Z,0.00
2017-10-28T01:29:34.097Z,0.00
2017-10-28T01:30:34.112Z,0.00
2017-10-28T01:32:27.497Z,0.00
2017-10-28T01:33:27.487Z,0.00
2017-10-28T01:35:20.943Z,0.00
2017-10-28T01:36:20.858Z,0.00
2017-10-28T01:38:15.252Z,0.00
2017-10-28T01:39:15.241Z,0.00
2017-10-28T01:41:08.604Z,0.00
2017-10-28T01:42:08.711Z,0.00
2017-10-28T01:44:02.136Z,0.00
2017-10-28T01:45:02.087Z,0.00
2017-10-28T01:46:55.456Z,0.00
2017-10-28T01:47:55.470Z,0.00
2017-10-28T01:49:48.827Z,0.00
2017-10-28T01:50:48.839Z,0.00
2017-10-28T01:52:42.223Z,0.00
2017-10-28T01:53:42.243Z,0.00
2017-10-28T01:55:35.674Z,0.00
2017-10-28T01:56:35.644Z,0.00
2017-10-28T01:58:29.055Z,0.00
2017-10-28T01:59:28.992Z,0.00
2017-10-28T02:01:22.418Z,0.00
2017-10-28T02:02:22.390Z,0.00
2017-10-28T02:04:15.862Z,0.00
2017-10-28T02:05:15.857Z,0.00
2017-10-28T02:07:09.254Z,0.00
2017-10-28T02:08:09.183Z,0.00
2017-10-28T02:10:02.618Z,0.00
2017-10-28T02:11:02.598Z,0.00
2017-10-28T02:12:55.973Z,0.00
2017-10-28T02:13:56.054Z,0.00
2017-10-28T02:15:49.446Z,0.00
2017-10-28T02:16:49.426Z,0.00
2017-10-28T02:18:42.861Z,0.00
2017-10-28T02:19:42.774Z,0.00
2017-10-28T02:21:36.238Z,0.00
2017-10-28T02:22:36.209Z,0.00
2017-10-28T02:24:29.493Z,0.00
2017-10-28T02:25:29.545Z,0.00
2017-10-28T02:27:22.984Z,0.00
2017-10-28T02:28:22.960Z,0.00
2017-10-28T02:30:16.352Z,0.00
2017-10-28T02:31:16.352Z,0.00
2017-10-28T02:33:09.750Z,0.00
2017-10-28T02:34:09.763Z,0.00
2017-10-28T02:36:03.153Z,0.00
2017-10-28T02:37:03.137Z,0.00
2017-10-28T02:38:56.518Z,0.00
2017-10-28T02:39:56.526Z,0.00
2017-10-28T02:41:49.960Z,0.00
2017-10-28T02:42:49.896Z,0.00
2017-10-28T02:44:43.374Z,0.00
2017-10-28T02:45:43.361Z,0.00
2017-10-28T02:47:36.697Z,0.00
2017-10-28T02:48:36.719Z,0.00
2017-10-28T02:50:31.121Z,0.00
2017-10-28T02:51:31.109Z,0.00
2017-10-28T02:53:24.498Z,0.00
2017-10-28T02:54:24.487Z,0.00
2017-10-28T02:56:17.923Z,0.00
2017-10-28T02:57:17.917Z,0.00
2017-10-28T02:59:12.266Z,0.00
2017-10-28T03:00:12.275Z,0.00
2017-10-28T03:02:05.672Z,0.00
2017-10-28T03:03:05.715Z,0.00
2017-10-28T03:04:59.106Z,0.00
2017-10-28T03:05:59.062Z,0.00
2017-10-28T03:07:53.422Z,0.00
2017-10-28T03:08:53.428Z,0.00
2017-10-28T03:10:47.925Z,0.00
2017-10-28T03:11:47.866Z,0.00
2017-10-28T03:13:41.250Z,0.00
2017-10-28T03:14:41.239Z,0.00
2017-10-28T03:16:34.634Z,0.00
2017-10-28T03:17:34.681Z,0.00
2017-10-28T03:19:28.014Z,0.00
2017-10-28T03:20:28.095Z,0.00
2017-10-28T03:22:21.451Z,0.00
2017-10-28T03:23:21.449Z,0.00
2017-10-28T03:25:15.845Z,0.00
2017-10-28T03:26:15.873Z,0.00
2017-10-28T03:28:09.215Z,0.00
2017-10-28T03:29:09.240Z,0.00
2017-10-28T03:31:02.622Z,0.00
2017-10-28T03:32:02.622Z,0.00
2017-10-28T03:33:57.005Z,0.00
2017-10-28T03:34:57.092Z,0.00
2017-10-28T03:36:50.349Z,0.00
2017-10-28T03:37:50.410Z,0.00
2017-10-28T03:39:43.814Z,0.00
2017-10-28T03:40:43.828Z,0.00
2017-10-28T03:42:37.208Z,0.00
2017-10-28T03:43:37.151Z,0.00
2017-10-28T03:45:30.655Z,0.00
2017-10-28T03:46:31.073Z,0.00
2017-10-28T03:48:24.016Z,0.00
2017-10-28T03:49:23.964Z,0.00
2017-10-28T03:51:18.339Z,0.00
2017-10-28T03:52:18.332Z,0.00
2017-10-28T03:54:11.685Z,0.00
2017-10-28T03:55:11.721Z,0.00
2017-10-28T03:57:05.141Z,0.00
2017-10-28T03:58:05.144Z,0.00
2017-10-28T03:59:58.533Z,0.00
2017-10-28T04:00:58.555Z,0.00
2017-10-28T04:02:51.924Z,0.00
2017-10-28T04:03:51.952Z,0.00
2017-10-28T04:05:45.383Z,0.00
2017-10-28T04:06:45.303Z,0.00
2017-10-28T04:08:38.804Z,0.00
2017-10-28T04:09:38.784Z,0.00
2017-10-28T04:11:32.179Z,0.00
2017-10-28T04:12:32.108Z,0.00
2017-10-28T04:14:25.514Z,0.00
2017-10-28T04:15:25.528Z,0.00
2017-10-28T04:17:19.909Z,0.00
2017-10-28T04:18:19.916Z,0.00
2017-10-28T04:20:13.344Z,0.00
2017-10-28T04:21:13.396Z,0.00
2017-10-28T04:23:06.724Z,0.00
2017-10-28T04:24:06.748Z,0.00
2017-10-28T04:26:00.112Z,0.00
2017-10-28T04:27:00.138Z,0.00
2017-10-28T04:28:53.544Z,0.00
2017-10-28T04:29:53.521Z,0.00
2017-10-28T04:31:48.029Z,0.00
2017-10-28T04:32:47.899Z,0.00
2017-10-28T04:34:41.347Z,0.00
2017-10-28T04:35:41.355Z,0.00
2017-10-28T04:37:34.701Z,0.00
2017-10-28T04:38:34.755Z,0.00
2017-10-28T04:40:28.148Z,0.00
2017-10-28T04:41:28.080Z,0.00
2017-10-28T04:43:21.453Z,0.00
2017-10-28T04:44:21.494Z,0.00
2017-10-28T04:46:14.882Z,0.00
2017-10-28T04:47:14.915Z,0.00
2017-10-28T04:49:08.336Z,0.00
2017-10-28T04:50:08.354Z,0.00
2017-10-28T04:52:01.711Z,0.00
2017-10-28T04:53:01.669Z,0.00
2017-10-28T04:54:55.083Z,0.00
2017-10-28T04:55:55.072Z,0.00
2017-10-28T04:57:48.477Z,0.00
2017-10-28T04:58:48.444Z,0.00
2017-10-28T05:00:41.838Z,0.00
2017-10-28T05:01:41.879Z,0.00
2017-10-28T05:03:35.286Z,0.00
2017-10-28T05:04:35.247Z,0.00
2017-10-28T05:06:29.684Z,0.00
2017-10-28T05:07:29.648Z,0.00
2017-10-28T05:09:23.037Z,0.00
2017-10-28T05:10:23.020Z,0.00
2017-10-28T05:12:16.447Z,0.00
2017-10-28T05:13:16.410Z,0.00
2017-10-28T05:15:09.769Z,0.00
2017-10-28T05:16:09.850Z,0.00
2017-10-28T05:18:03.207Z,0.00
2017-10-28T05:19:03.224Z,0.00
2017-10-28T05:20:56.598Z,0.00
2017-10-28T05:21:56.629Z,0.00
2017-10-28T05:23:50.033Z,0.00
2017-10-28T05:24:49.964Z,0.00
2017-10-28T05:26:43.359Z,0.00
2017-10-28T05:27:43.412Z,0.00
2017-10-28T05:29:36.775Z,0.00
2017-10-28T05:30:36.776Z,0.00
2017-10-28T05:32:30.135Z,0.00
2017-10-28T05:33:30.186Z,0.00
2017-10-28T05:35:23.585Z,0.00
2017-10-28T05:36:23.564Z,0.00
2017-10-28T05:38:16.961Z,0.00
2017-10-28T05:39:17.032Z,0.00
2017-10-28T05:41:10.308Z,0.00
2017-10-28T05:42:10.362Z,0.00
2017-10-28T05:44:03.798Z,0.00
2017-10-28T05:45:03.743Z,0.00
2017-10-28T05:46:57.112Z,0.00
2017-10-28T05:47:57.111Z,0.00
2017-10-28T05:49:51.509Z,0.00
2017-10-28T05:50:51.516Z,0.00
2017-10-28T05:52:44.912Z,0.00
2017-10-28T05:53:44.942Z,0.00
2017-10-28T05:55:39.275Z,0.00
2017-10-28T05:56:39.351Z,0.00
2017-10-28T05:58:32.704Z,0.00
2017-10-28T05:59:32.677Z,0.00
2017-10-28T06:01:26.181Z,5.63
2017-10-28T06:02:26.147Z,5.63
2017-10-28T06:04:21.486Z,5.63
2017-10-28T06:05:21.483Z,5.63
2017-10-28T06:07:14.928Z,5.63
2017-10-28T06:08:14.875Z,5.63
2017-10-28T06:10:08.402Z,11.25
2017-10-28T06:11:08.295Z,11.25
2017-10-28T06:13:02.680Z,11.25
2017-10-28T06:14:02.736Z,11.25
2017-10-28T06:15:58.082Z,16.88
2017-10-28T06:16:58.099Z,16.88
2017-10-28T06:18:52.465Z,16.88
2017-10-28T06:19:52.468Z,16.88
2017-10-28T06:21:45.921Z,16.88
2017-10-28T06:22:45.871Z,22.50
2017-10-28T06:24:39.306Z,22.50
2017-10-28T06:25:39.259Z,22.50
2017-10-28T06:27:32.658Z,22.50
2017-10-28T06:28:32.695Z,28.13
2017-10-28T06:30:26.105Z,28.13
2017-10-28T06:31:26.069Z,28.13
2017-10-28T06:33:20.426Z,33.75
2017-10-28T06:34:20.457Z,33.75
2017-10-28T06:36:14.927Z,39.38
2017-10-28T06:37:14.825Z,39.38
2017-10-28T06:39:08.295Z,45.00
2017-10-28T06:40:08.263Z,45.00
2017-10-28T06:42:02.671Z,50.63
2017-10-28T06:43:02.677Z,56.25
2017-10-28T06:44:56.109Z,61.88
2017-10-28T06:45:56.068Z,61.88
2017-10-28T06:47:49.459Z,61.88
2017-10-28T06:48:49.443Z,61.88
2017-10-28T06:50:42.822Z,61.88
2017-10-28T06:51:42.841Z,61.88
2017-10-28T06:53:36.262Z,61.88
2017-10-28T06:54:36.246Z,61.88
2017-10-28T06:56:29.607Z,61.88
2017-10-28T06:57:29.631Z,61.88
2017-10-28T06:59:24.036Z,61.88
2017-10-28T07:00:24.031Z,61.88
2017-10-28T07:02:17.371Z,67.50
2017-10-28T07:03:17.427Z,73.13
2017-10-28T07:05:10.885Z,78.75
2017-10-28T07:06:10.827Z,78.75
2017-10-28T07:08:04.241Z,90.00
2017-10-28T07:09:04.291Z,90.00
2017-10-28T07:10:57.665Z,101.25
2017-10-28T07:11:57.740Z,101.25
2017-10-28T07:13:51.017Z,106.88
2017-10-28T07:14:51.027Z,112.50
2017-10-28T07:16:44.443Z,112.50
2017-10-28T07:17:44.401Z,112.50
2017-10-28T07:19:37.845Z,112.50
2017-10-28T07:20:37.825Z,112.50
2017-10-28T07:22:32.316Z,106.88
2017-10-28T07:23:32.244Z,106.88
2017-10-28T07:25:26.001Z,106.88
2017-10-28T07:26:26.013Z,112.50
2017-10-28T07:28:19.500Z,118.13
2017-10-28T07:29:19.512Z,123.75
2017-10-28T07:31:13.750Z,129.38
2017-10-28T07:32:14.389Z,129.38
2017-10-28T07:34:06.718Z,123.75
2017-10-28T07:35:06.700Z,118.13
2017-10-28T07:37:00.140Z,118.13
2017-10-28T07:38:00.127Z,101.25
2017-10-28T07:39:53.791Z,78.75
2017-10-28T07:40:53.777Z,78.75
2017-10-28T07:42:47.184Z,73.13
2017-10-28T07:43:47.174Z,73.13
2017-10-28T07:45:40.609Z,84.38
2017-10-28T07:46:40.602Z,95.63
2017-10-28T07:48:35.046Z,112.50
2017-10-28T07:49:34.991Z,123.75
2017-10-28T07:51:28.435Z,129.38
2017-10-28T07:52:28.357Z,135.00
2017-10-28T07:54:22.701Z,140.63
2017-10-28T07:55:22.729Z,135.00
2017-10-28T07:57:16.534Z,140.63
2017-10-28T07:58:16.509Z,146.25
2017-10-28T08:00:09.952Z,168.75
2017-10-28T08:01:09.900Z,174.38
2017-10-28T08:03:03.406Z,185.63
2017-10-28T08:04:03.378Z,191.25
2017-10-28T08:05:56.681Z,180.00
2017-10-28T08:06:56.690Z,168.75
2017-10-28T08:08:50.059Z,168.75
2017-10-28T08:09:50.066Z,180.00
2017-10-28T08:11:43.482Z,202.50
2017-10-28T08:12:43.473Z,196.88
2017-10-28T08:14:36.891Z,196.88
2017-10-28T08:15:37.094Z,202.50
2017-10-28T08:17:30.306Z,191.25
2017-10-28T08:18:30.310Z,174.38
2017-10-28T08:20:23.890Z,157.50
2017-10-28T08:21:23.682Z,157.50
2017-10-28T08:23:17.111Z,196.88
2017-10-28T08:24:17.121Z,180.00
2017-10-28T08:26:10.514Z,151.88
2017-10-28T08:27:10.548Z,208.13
2017-10-28T08:29:04.943Z,258.75
2017-10-28T08:30:05.224Z,270.00
2017-10-28T08:31:58.291Z,270.00
2017-10-28T08:32:58.296Z,281.25
2017-10-28T08:34:51.700Z,275.63
2017-10-28T08:35:51.700Z,286.88
2017-10-28T08:37:45.064Z,253.13
2017-10-28T08:38:45.078Z,258.75
2017-10-28T08:40:38.486Z,315.00
2017-10-28T08:41:38.742Z,315.00
2017-10-28T08:43:31.949Z,258.75
2017-10-28T08:44:31.949Z,253.13
2017-10-28T08:46:25.271Z,247.50
2017-10-28T08:47:25.553Z,258.75
2017-10-28T08:49:19.261Z,298.13
2017-10-28T08:50:19.266Z,315.00
2017-10-28T08:52:12.726Z,292.50
2017-10-28T08:53:12.715Z,264.38
2017-10-28T08:55:07.865Z,230.63
2017-10-28T08:56:06.108Z,225.00
2017-10-28T08:57:59.555Z,241.88
2017-10-28T08:58:59.561Z,258.75
2017-10-28T09:00:53.078Z,275.63
2017-10-28T09:01:53.158Z,292.50
2017-10-28T09:03:47.503Z,309.38
2017-10-28T09:04:47.447Z,315.00
2017-10-28T09:06:40.899Z,298.13
2017-10-28T09:07:40.906Z,303.75
2017-10-28T09:09:34.315Z,331.88
2017-10-28T09:10:34.357Z,343.13
2017-10-28T09:12:27.708Z,303.75
2017-10-28T09:13:27.683Z,286.88
2017-10-28T09:15:21.201Z,264.38
2017-10-28T09:16:21.110Z,247.50
2017-10-28T09:18:14.486Z,241.88
2017-10-28T09:19:14.472Z,241.88
2017-10-28T09:21:07.861Z,236.25
2017-10-28T09:22:07.863Z,225.00
2017-10-28T09:24:01.268Z,230.63
2017-10-28T09:25:01.255Z,247.50
2017-10-28T09:26:54.655Z,270.00
2017-10-28T09:27:54.656Z,275.63
2017-10-28T09:29:48.068Z,292.50
2017-10-28T09:30:48.049Z,286.88
2017-10-28T09:32:41.456Z,281.25
2017-10-28T09:33:41.446Z,270.00
2017-10-28T09:35:34.851Z,253.13
2017-10-28T09:36:34.835Z,236.25
2017-10-28T09:38:28.251Z,208.13
2017-10-28T09:39:28.249Z,202.50
2017-10-28T09:41:21.653Z,208.13
2017-10-28T09:42:21.641Z,208.13
2017-10-28T09:44:15.050Z,225.00
2017-10-28T09:45:15.031Z,230.63
2017-10-28T09:47:07.924Z,247.50
2017-10-28T09:48:07.926Z,258.75
2017-10-28T09:50:01.332Z,281.25
2017-10-28T09:51:01.322Z,286.88
2017-10-28T09:52:54.704Z,298.13
2017-10-28T09:53:54.710Z,270.00
2017-10-28T09:55:48.122Z,281.25
2017-10-28T09:56:48.104Z,286.88
2017-10-28T09:58:41.493Z,275.63
2017-10-28T09:59:41.495Z,286.88
2017-10-28T10:01:34.978Z,315.00
2017-10-28T10:02:35.030Z,326.25
2017-10-28T10:04:29.397Z,331.88
2017-10-28T10:05:29.362Z,343.13
2017-10-28T10:07:22.737Z,354.38
2017-10-28T10:08:22.835Z,315.00
2017-10-28T10:10:16.179Z,337.50
2017-10-28T10:11:16.184Z,315.00
2017-10-28T10:13:09.638Z,258.75
2017-10-28T10:14:09.598Z,258.75
2017-10-28T10:16:02.948Z,264.38
2017-10-28T10:17:02.958Z,270.00
2017-10-28T10:18:56.380Z,275.63
2017-10-28T10:19:56.387Z,275.63
2017-10-28T10:21:50.737Z,309.38
2017-10-28T10:22:50.794Z,337.50
2017-10-28T10:24:44.161Z,416.25
2017-10-28T10:25:44.146Z,523.13
2017-10-28T10:27:37.566Z,658.13
2017-10-28T10:28:37.536Z,708.75
2017-10-28T10:30:30.992Z,1063.13
2017-10-28T10:31:31.001Z,911.25
2017-10-28T10:33:24.310Z,950.63
2017-10-28T10:34:24.435Z,888.75
2017-10-28T10:36:17.783Z,793.13
2017-10-28T10:37:17.769Z,736.88
2017-10-28T10:39:11.100Z,725.63
2017-10-28T10:40:11.196Z,596.25
2017-10-28T10:42:04.588Z,483.75
2017-10-28T10:43:04.620Z,399.38
2017-10-28T10:44:57.979Z,348.75
2017-10-28T10:45:57.994Z,309.38
2017-10-28T10:47:51.404Z,354.38
2017-10-28T10:48:51.439Z,601.88
2017-10-28T10:50:45.832Z,691.88
2017-10-28T10:51:45.833Z,1411.88
2017-10-28T10:53:39.183Z,613.13
2017-10-28T10:54:39.191Z,1125.00
2017-10-28T10:56:32.580Z,720.00
2017-10-28T10:57:32.741Z,1080.00
2017-10-28T10:59:27.168Z,1951.88
2017-10-28T11:00:27.001Z,1873.13
2017-10-28T11:02:21.453Z,2250.00
2017-10-28T11:03:21.440Z,1850.63
2017-10-28T11:05:14.813Z,1513.13
2017-10-28T11:06:14.854Z,1541.25
2017-10-28T11:08:08.224Z,1513.13
2017-10-28T11:09:09.074Z,1507.50
2017-10-28T11:11:01.834Z,2030.63
2017-10-28T11:12:02.309Z,1636.88
2017-10-28T11:13:55.339Z,613.13
2017-10-28T11:14:55.566Z,1445.63
2017-10-28T11:16:50.163Z,1125.00
2017-10-28T11:17:49.844Z,849.38
2017-10-28T11:19:42.983Z,1001.25
2017-10-28T11:20:43.141Z,1524.38
2017-10-28T11:22:36.457Z,781.88
2017-10-28T11:23:36.418Z,630.00
2017-10-28T11:25:31.084Z,781.88
2017-10-28T11:26:31.091Z,455.63
2017-10-28T11:28:24.310Z,894.38
2017-10-28T11:29:24.133Z,725.63
2017-10-28T11:31:18.070Z,832.50
2017-10-28T11:32:17.550Z,343.13
2017-10-28T11:34:10.990Z,613.13
2017-10-28T11:35:11.082Z,382.50
2017-10-28T11:37:04.643Z,382.50
2017-10-28T11:38:04.460Z,236.25
2017-10-28T11:39:57.998Z,258.75
2017-10-28T11:40:58.156Z,225.00
2017-10-28T11:42:51.285Z,213.75
2017-10-28T11:43:51.481Z,309.38
2017-10-28T11:45:45.711Z,275.63
2017-10-28T11:46:45.795Z,326.25
2017-10-28T11:48:39.214Z,365.63
2017-10-28T11:49:39.204Z,348.75
2017-10-28T11:51:32.634Z,365.63
2017-10-28T11:52:32.602Z,365.63
2017-10-28T11:54:25.939Z,225.00
2017-10-28T11:55:26.000Z,264.38
2017-10-28T11:57:19.419Z,253.13
2017-10-28T11:58:19.432Z,286.88
2017-10-28T12:00:13.913Z,264.38
2017-10-28T12:01:13.785Z,225.00
2017-10-28T12:03:07.193Z,157.50
2017-10-28T12:04:07.190Z,157.50
2017-10-28T12:06:00.573Z,393.75
2017-10-28T12:07:00.606Z,427.50
2017-10-28T12:08:54.047Z,247.50
2017-10-28T12:09:53.999Z,230.63
2017-10-28T12:11:47.368Z,545.63
2017-10-28T12:12:47.377Z,331.88
2017-10-28T12:14:40.888Z,315.00
2017-10-28T12:15:40.826Z,399.38
2017-10-28T12:17:34.251Z,427.50
2017-10-28T12:18:34.223Z,433.13
2017-10-28T12:20:27.612Z,337.50
2017-10-28T12:21:27.608Z,360.00
2017-10-28T12:23:21.023Z,416.25
2017-10-28T12:24:21.056Z,393.75
2017-10-28T12:26:14.469Z,416.25
2017-10-28T12:27:14.467Z,416.25
2017-10-28T12:29:07.970Z,337.50
2017-10-28T12:30:07.884Z,286.88
2017-10-28T12:32:01.312Z,320.63
2017-10-28T12:33:01.260Z,331.88
2017-10-28T12:34:54.659Z,326.25
2017-10-28T12:35:54.615Z,326.25
2017-10-28T12:37:48.075Z,315.00
2017-10-28T12:38:48.105Z,309.38
2017-10-28T12:40:41.554Z,270.00
2017-10-28T12:41:41.555Z,236.25
2017-10-28T12:43:37.046Z,270.00
2017-10-28T12:44:36.940Z,253.13
2017-10-28T12:46:30.340Z,275.63
2017-10-28T12:47:30.437Z,230.63
2017-10-28T12:49:24.791Z,213.75
2017-10-28T12:50:24.752Z,270.00
2017-10-28T12:52:19.093Z,360.00
2017-10-28T12:53:19.252Z,343.13
2017-10-28T12:55:12.629Z,331.88
2017-10-28T12:56:12.591Z,315.00
2017-10-28T12:58:06.029Z,286.88
2017-10-28T12:59:06.054Z,253.13
2017-10-28T13:00:59.345Z,258.75
2017-10-28T13:01:59.317Z,258.75
2017-10-28T13:03:52.770Z,270.00
2017-10-28T13:04:52.938Z,247.50
2017-10-28T13:06:46.274Z,219.38
2017-10-28T13:07:46.381Z,270.00
2017-10-28T13:09:40.526Z,275.63
2017-10-28T13:10:39.642Z,275.63
2017-10-28T13:12:32.937Z,286.88
2017-10-28T13:13:33.014Z,253.13
2017-10-28T13:15:27.373Z,303.75
2017-10-28T13:16:27.404Z,298.13
2017-10-28T13:18:20.852Z,309.38
2017-10-28T13:19:20.793Z,303.75
2017-10-28T13:21:14.240Z,247.50
2017-10-28T13:22:14.264Z,236.25
2017-10-28T13:24:07.636Z,241.88
2017-10-28T13:25:07.648Z,253.13
2017-10-28T13:27:00.958Z,270.00
2017-10-28T13:28:01.018Z,264.38
2017-10-28T13:29:54.473Z,241.88
2017-10-28T13:30:54.438Z,230.63
2017-10-28T13:32:48.853Z,230.63
2017-10-28T13:33:48.795Z,247.50
2017-10-28T13:35:42.254Z,270.00
2017-10-28T13:36:42.213Z,270.00
2017-10-28T13:38:35.594Z,253.13
2017-10-28T13:39:35.636Z,241.88
2017-10-28T13:41:29.076Z,230.63
2017-10-28T13:42:29.047Z,230.63
2017-10-28T13:44:23.422Z,219.38
2017-10-28T13:45:23.480Z,202.50
2017-10-28T13:47:16.877Z,185.63
2017-10-28T13:48:16.854Z,174.38
2017-10-28T13:50:10.274Z,174.38
2017-10-28T13:51:10.392Z,174.38
2017-10-28T13:53:03.692Z,168.75
2017-10-28T13:54:03.808Z,163.13
2017-10-28T13:55:57.112Z,151.88
2017-10-28T13:56:57.204Z,151.88
2017-10-28T13:58:50.482Z,146.25
2017-10-28T13:59:50.479Z,140.63
2017-10-28T14:01:43.938Z,135.00
2017-10-28T14:02:43.911Z,135.00
2017-10-28T14:04:38.302Z,135.00
2017-10-28T14:05:38.335Z,135.00
2017-10-28T14:07:31.816Z,135.00
2017-10-28T14:08:31.872Z,129.38
2017-10-28T14:10:25.195Z,123.75
2017-10-28T14:11:25.218Z,118.13
2017-10-28T14:13:18.643Z,112.50
2017-10-28T14:14:18.682Z,112.50
2017-10-28T14:16:12.942Z,112.50
2017-10-28T14:17:12.974Z,112.50
2017-10-28T14:19:06.430Z,112.50
2017-10-28T14:20:06.342Z,106.88
2017-10-28T14:21:59.798Z,101.25
2017-10-28T14:22:59.743Z,95.63
2017-10-28T14:24:54.216Z,84.38
2017-10-28T14:25:54.205Z,84.38
2017-10-28T14:27:48.174Z,84.38
2017-10-28T14:28:48.126Z,78.75
2017-10-28T14:30:41.096Z,84.38
2017-10-28T14:31:50.663Z,84.38
2017-10-28T14:33:37.092Z,90.00
2017-10-28T14:34:34.154Z,90.00
2017-10-28T14:36:27.685Z,84.38
2017-10-28T14:37:27.590Z,78.75
2017-10-28T14:39:20.993Z,73.13
2017-10-28T14:40:20.947Z,67.50
2017-10-28T14:42:15.709Z,67.50
2017-10-28T14:43:15.313Z,61.88
2017-10-28T14:45:10.816Z,67.50
2017-10-28T14:46:10.832Z,67.50
2017-10-28T14:48:05.213Z,67.50
2017-10-28T14:49:05.218Z,67.50
2017-10-28T14:50:58.575Z,67.50
2017-10-28T14:51:58.594Z,61.88
2017-10-28T14:53:53.026Z,56.25
2017-10-28T14:54:52.975Z,56.25
2017-10-28T14:56:48.010Z,56.25
2017-10-28T14:57:47.395Z,61.88
2017-10-28T14:59:41.909Z,61.88
2017-10-28T15:00:41.825Z,67.50
2017-10-28T15:02:37.419Z,67.50
2017-10-28T15:03:36.136Z,67.50
2017-10-28T15:05:29.628Z,56.25
2017-10-28T15:06:29.618Z,50.63
2017-10-28T15:08:22.983Z,45.00
2017-10-28T15:09:23.014Z,39.38
2017-10-28T15:11:16.416Z,39.38
2017-10-28T15:12:16.438Z,33.75
2017-10-28T15:14:09.855Z,33.75
2017-10-28T15:15:09.836Z,28.13
2017-10-28T15:17:03.235Z,22.50
2017-10-28T15:18:03.268Z,16.88
2017-10-28T15:19:57.716Z,16.88
2017-10-28T15:20:57.683Z,16.88
2017-10-28T15:22:51.091Z,11.25
2017-10-28T15:23:51.089Z,11.25
2017-10-28T15:25:45.466Z,11.25
2017-10-28T15:26:45.510Z,11.25
2017-10-28T15:28:38.896Z,11.25
2017-10-28T15:29:38.864Z,11.25
2017-10-28T15:31:32.315Z,11.25
2017-10-28T15:32:32.226Z,5.63
2017-10-28T15:34:25.755Z,5.63
2017-10-28T15:35:25.631Z,5.63
2017-10-28T15:37:19.079Z,5.63
2017-10-28T15:38:19.037Z,5.63
2017-10-28T15:40:12.533Z,5.63
2017-10-28T15:41:12.432Z,5.63
2017-10-28T15:43:05.831Z,5.63
2017-10-28T15:44:05.868Z,0.00
2017-10-28T15:45:59.316Z,0.00
2017-10-28T15:46:59.242Z,0.00
2017-10-28T15:48:52.718Z,0.00
2017-10-28T15:49:52.642Z,0.00
2017-10-28T15:51:47.174Z,0.00
2017-10-28T15:52:47.032Z,0.00
2017-10-28T15:54:40.469Z,0.00
2017-10-28T15:55:40.419Z,0.00
2017-10-28T15:57:33.912Z,0.00
2017-10-28T15:58:33.910Z,0.00
2017-10-28T16:00:28.261Z,0.00
2017-10-28T16:01:28.275Z,0.00
2017-10-28T16:03:22.670Z,0.00
2017-10-28T16:04:22.664Z,0.00
2017-10-28T16:06:16.058Z,0.00
2017-10-28T16:07:16.146Z,0.00
2017-10-28T16:09:09.440Z,0.00
2017-10-28T16:10:09.428Z,0.00
2017-10-28T16:12:02.809Z,0.00
2017-10-28T16:13:02.830Z,0.00
2017-10-28T16:14:56.226Z,0.00
2017-10-28T16:15:56.235Z,0.00
2017-10-28T16:17:49.559Z,0.00
2017-10-28T16:18:49.614Z,0.00
2017-10-28T16:20:42.993Z,0.00
2017-10-28T16:21:43.067Z,0.00
2017-10-28T16:23:36.418Z,0.00
2017-10-28T16:24:36.450Z,0.00
2017-10-28T16:26:29.839Z,0.00
2017-10-28T16:27:29.870Z,0.00
2017-10-28T16:29:23.215Z,0.00
2017-10-28T16:30:23.240Z,0.00
2017-10-28T16:32:16.649Z,0.00
2017-10-28T16:33:16.674Z,0.00
2017-10-28T16:35:10.023Z,0.00
2017-10-28T16:36:10.032Z,0.00
2017-10-28T16:38:03.516Z,0.00
2017-10-28T16:39:03.411Z,0.00
2017-10-28T16:40:56.809Z,0.00
2017-10-28T16:41:56.802Z,0.00
2017-10-28T16:43:50.201Z,0.00
2017-10-28T16:44:50.189Z,0.00
2017-10-28T16:46:43.560Z,0.00
2017-10-28T16:47:43.571Z,0.00
2017-10-28T16:49:36.963Z,0.00
2017-10-28T16:50:36.953Z,0.00
2017-10-28T16:52:32.482Z,0.00
2017-10-28T16:53:32.476Z,0.00
2017-10-28T16:55:25.916Z,0.00
2017-10-28T16:56:25.939Z,0.00
2017-10-28T16:58:19.333Z,0.00
2017-10-28T16:59:19.346Z,0.00
2017-10-28T17:01:12.829Z,0.00
2017-10-28T17:02:12.768Z,0.00
2017-10-28T17:04:06.191Z,0.00
2017-10-28T17:05:06.155Z,0.00
2017-10-28T17:06:59.490Z,0.00
2017-10-28T17:07:59.569Z,0.00
2017-10-28T17:09:52.957Z,0.00
2017-10-28T17:10:52.926Z,0.00
2017-10-28T17:12:47.266Z,0.00
2017-10-28T17:13:47.353Z,0.00
2017-10-28T17:15:40.792Z,0.00
2017-10-28T17:16:40.804Z,0.00
2017-10-28T17:18:34.186Z,0.00
2017-10-28T17:19:34.170Z,0.00
2017-10-28T17:21:27.654Z,0.00
2017-10-28T17:22:27.564Z,0.00
2017-10-28T17:24:20.985Z,0.00
2017-10-28T17:25:20.944Z,0.00
2017-10-28T17:27:14.491Z,0.00
2017-10-28T17:28:14.388Z,0.00
2017-10-28T17:30:07.759Z,0.00
2017-10-28T17:31:07.755Z,0.00
2017-10-28T17:33:01.167Z,0.00
2017-10-28T17:34:01.146Z,0.00
2017-10-28T17:35:54.512Z,0.00
2017-10-28T17:36:54.558Z,0.00
2017-10-28T17:38:48.968Z,0.00
2017-10-28T17:39:48.923Z,0.00
2017-10-28T17:41:42.305Z,0.00
2017-10-28T17:42:42.342Z,0.00
2017-10-28T17:44:35.731Z,0.00
2017-10-28T17:45:35.701Z,0.00
2017-10-28T17:47:29.105Z,0.00
2017-10-28T17:48:29.202Z,0.00
2017-10-28T17:50:22.535Z,0.00
2017-10-28T17:51:22.571Z,0.00
2017-10-28T17:53:15.935Z,0.00
2017-10-28T17:54:15.936Z,0.00
2017-10-28T17:56:09.337Z,0.00
2017-10-28T17:57:09.380Z,0.00
2017-10-28T17:59:02.777Z,0.00
2017-10-28T18:00:02.705Z,0.00
2017-10-28T18:01:56.106Z,0.00
2017-10-28T18:02:56.186Z,0.00
2017-10-28T18:04:58.176Z,0.00
2017-10-28T18:05:49.528Z,0.00
2017-10-28T18:07:43.293Z,0.00
2017-10-28T18:08:42.837Z,0.00
2017-10-28T18:10:36.329Z,0.00
2017-10-28T18:11:36.276Z,0.00
2017-10-28T18:13:29.718Z,0.00
2017-10-28T18:14:29.694Z,0.00
2017-10-28T18:16:24.109Z,0.00
2017-10-28T18:17:24.193Z,0.00
2017-10-28T18:19:17.564Z,0.00
2017-10-28T18:20:17.559Z,0.00
2017-10-28T18:22:10.951Z,0.00
2017-10-28T18:23:10.971Z,0.00
2017-10-28T18:25:05.349Z,0.00
2017-10-28T18:26:05.352Z,0.00
2017-10-28T18:27:58.774Z,0.00
2017-10-28T18:28:58.744Z,0.00
2017-10-28T18:30:52.095Z,0.00
2017-10-28T18:31:52.114Z,0.00
2017-10-28T18:33:45.480Z,0.00
2017-10-28T18:34:45.479Z,0.00
2017-10-28T18:36:39.001Z,0.00
2017-10-28T18:37:38.897Z,0.00
2017-10-28T18:39:32.302Z,0.00
2017-10-28T18:40:32.291Z,0.00
2017-10-28T18:42:25.723Z,0.00